Etusivu
METAR-TAF:

METAR-TAF

Lentoasemat :

Bric della Croce

Torino, Italia

Leveyspiiri: 45-02N, Pituuspiiri: 007-44E, korkeus merenpinnasta: 709 m

Tämänhetkinen sää

Tämä raportti tehtiin 58 minuuttia sitten, kello 02.55 UTC
Tuuli 6 kn pohjoisen/luoteesta
Lämpötila 3°C
Kosteus 100%
Ilmanpaine 1019 hPa
Näkyvyys 10 km tai enemmän
ei pilviä alle 1500 m:ssä eikä cumulonimbus-pilviä

METAR: LIMK 190255Z 34006KT CAVOK 03/03 Q1019 RMK SKC VAL NIL VIS MIN 9999

Aika: 04:53 (03:53 UTC)


TAF: puuttuu

Säähavainnot ja -ennusteet yli 4000 lentoasemalta (METAR- ja TAF-raportit).

Käytössä olevat sääasemat on merkitty karttaan keltaisilla ja punaisilla pisteillä.

Aseta hiiri pisteen päälle nähdäksesi sääaseman nimen.

Klikkaa sitten nähdäksesi säähavainnot ja -ennusteet.

Kartan vaihtaminen: klikkaa mustalla rastilla varustettuja vihreitä pisteitä, niin voit zoomata sisään; viivalla varustettua vihreää pistettä, niin voit zoomata ulos tai vihreitä nuolia, niin pääset viereisille kartoille.


METAR-TAF: